X  Close Metar Aviation Weather Data     EGJJ Jersey Airport
Temperature
18°C Temperature
15°C Dewpoint
83% Humidity



Wind
23 KM/H
14 MPH
6 M/S
12 KTS



190°
South
Current Conditions

Partly Cloudy Partly Cloudy
Pressure 1016.92 (hPa) - 30.03 (inHg)
Visibility 6.2 (mile) - 10 (km)
Airport
Airport-code EGJJ

Location: Jersey Airport
Distance: 14 (km)

Metar:
EGJJ 161020Z 19012KT 160V220 9999 FEW025 18/15 Q1017

Time: 16-05-2022 11:20 BST